sensor_id;sensor_type;location;lat;lon;timestamp;P1;durP1;ratioP1;P2;durP2;ratioP2
42092;SDS011;28974;50.316;18.960;2023-05-18T00:01:39;41.55;;;14.82;;
42092;SDS011;28974;50.316;18.960;2023-05-18T00:13:39;38.17;;;14.67;;
42092;SDS011;28974;50.316;18.960;2023-05-18T00:25:40;45.25;;;13.43;;
42092;SDS011;28974;50.316;18.960;2023-05-18T00:37:40;44.10;;;13.13;;
42092;SDS011;28974;50.316;18.960;2023-05-18T00:49:40;40.75;;;11.75;;
42092;SDS011;28974;50.316;18.960;2023-05-18T01:01:41;41.60;;;12.38;;
42092;SDS011;28974;50.316;18.960;2023-05-18T01:37:55;34.93;;;9.47;;
42092;SDS011;28974;50.316;18.960;2023-05-18T02:01:59;34.47;;;10.65;;
42092;SDS011;28974;50.316;18.960;2023-05-18T02:14:00;31.60;;;9.75;;
42092;SDS011;28974;50.316;18.960;2023-05-18T02:26:01;30.88;;;9.43;;
42092;SDS011;28974;50.316;18.960;2023-05-18T02:38:01;32.67;;;9.98;;
42092;SDS011;28974;50.316;18.960;2023-05-18T02:50:02;35.45;;;9.30;;
42092;SDS011;28974;50.316;18.960;2023-05-18T03:02:04;35.17;;;9.13;;
42092;SDS011;28974;50.316;18.960;2023-05-18T03:14:05;28.52;;;10.68;;
42092;SDS011;28974;50.316;18.960;2023-05-18T03:26:05;40.50;;;11.32;;
42092;SDS011;28974;50.316;18.960;2023-05-18T03:38:10;36.58;;;9.57;;
42092;SDS011;28974;50.316;18.960;2023-05-18T03:50:14;30.90;;;8.23;;
42092;SDS011;28974;50.316;18.960;2023-05-18T04:02:16;34.25;;;7.97;;
42092;SDS011;28974;50.316;18.960;2023-05-18T04:14:16;36.65;;;9.88;;
42092;SDS011;28974;50.316;18.960;2023-05-18T04:26:17;40.58;;;10.18;;
42092;SDS011;28974;50.316;18.960;2023-05-18T04:38:20;22.92;;;8.20;;
42092;SDS011;28974;50.316;18.960;2023-05-18T04:50:22;41.75;;;8.88;;
42092;SDS011;28974;50.316;18.960;2023-05-18T05:02:23;48.03;;;12.27;;
42092;SDS011;28974;50.316;18.960;2023-05-18T05:14:23;41.70;;;8.57;;
42092;SDS011;28974;50.316;18.960;2023-05-18T05:26:24;30.15;;;7.13;;
42092;SDS011;28974;50.316;18.960;2023-05-18T05:38:25;48.53;;;8.50;;
42092;SDS011;28974;50.316;18.960;2023-05-18T05:50:26;30.63;;;7.15;;
42092;SDS011;28974;50.316;18.960;2023-05-18T06:02:32;24.88;;;5.38;;
42092;SDS011;28974;50.316;18.960;2023-05-18T06:14:33;21.42;;;4.53;;
42092;SDS011;28974;50.316;18.960;2023-05-18T06:26:34;17.73;;;4.47;;
42092;SDS011;28974;50.316;18.960;2023-05-18T06:38:54;27.10;;;4.78;;
42092;SDS011;28974;50.316;18.960;2023-05-18T06:50:55;20.15;;;7.15;;
42092;SDS011;28974;50.316;18.960;2023-05-18T07:02:56;24.50;;;4.80;;
42092;SDS011;28974;50.316;18.960;2023-05-18T07:14:57;13.50;;;4.47;;
42092;SDS011;28974;50.316;18.960;2023-05-18T07:26:57;12.07;;;4.32;;
42092;SDS011;28974;50.316;18.960;2023-05-18T07:38:58;15.23;;;3.92;;
42092;SDS011;28974;50.316;18.960;2023-05-18T07:50:59;14.68;;;3.70;;
42092;SDS011;28974;50.316;18.960;2023-05-18T08:16:12;16.52;;;3.88;;
42092;SDS011;28974;50.316;18.960;2023-05-18T08:28:13;14.43;;;3.70;;
42092;SDS011;28974;50.316;18.960;2023-05-18T08:40:13;21.85;;;3.72;;
42092;SDS011;28974;50.316;18.960;2023-05-18T08:52:14;39.22;;;4.70;;
42092;SDS011;28974;50.316;18.960;2023-05-18T09:04:17;12.75;;;4.15;;
42092;SDS011;28974;50.316;18.960;2023-05-18T09:16:18;20.73;;;3.33;;
42092;SDS011;28974;50.316;18.960;2023-05-18T09:28:52;17.05;;;4.38;;
42092;SDS011;28974;50.316;18.960;2023-05-18T09:40:47;12.95;;;3.53;;
42092;SDS011;28974;50.316;18.960;2023-05-18T09:52:48;14.25;;;3.05;;
42092;SDS011;28974;50.316;18.960;2023-05-18T10:04:49;15.18;;;3.80;;
42092;SDS011;28974;50.316;18.960;2023-05-18T10:16:50;25.15;;;2.90;;
42092;SDS011;28974;50.316;18.960;2023-05-18T10:28:51;11.68;;;2.75;;
42092;SDS011;28974;50.316;18.960;2023-05-18T10:40:53;11.07;;;2.75;;
42092;SDS011;28974;50.316;18.960;2023-05-18T10:52:54;13.77;;;3.33;;
42092;SDS011;28974;50.316;18.960;2023-05-18T11:04:55;11.23;;;2.67;;
42092;SDS011;28974;50.316;18.960;2023-05-18T11:17:15;14.10;;;3.13;;
42092;SDS011;28974;50.316;18.960;2023-05-18T11:53:26;14.02;;;3.13;;
42092;SDS011;28974;50.316;18.960;2023-05-18T12:05:29;14.88;;;3.08;;
42092;SDS011;28974;50.316;18.960;2023-05-18T12:17:40;10.40;;;3.22;;
42092;SDS011;28974;50.316;18.960;2023-05-18T12:29:40;12.75;;;4.13;;
42092;SDS011;28974;50.316;18.960;2023-05-18T12:41:41;8.38;;;2.85;;
42092;SDS011;28974;50.316;18.960;2023-05-18T12:53:41;11.95;;;2.92;;
42092;SDS011;28974;50.316;18.960;2023-05-18T13:05:43;18.10;;;3.55;;
42092;SDS011;28974;50.316;18.960;2023-05-18T13:17:48;23.58;;;6.95;;
42092;SDS011;28974;50.316;18.960;2023-05-18T13:29:48;15.05;;;4.30;;
42092;SDS011;28974;50.316;18.960;2023-05-18T13:41:50;10.43;;;3.92;;
42092;SDS011;28974;50.316;18.960;2023-05-18T13:53:50;17.48;;;4.03;;
42092;SDS011;28974;50.316;18.960;2023-05-18T14:05:51;11.05;;;4.35;;
42092;SDS011;28974;50.316;18.960;2023-05-18T14:17:51;17.63;;;4.85;;
42092;SDS011;28974;50.316;18.960;2023-05-18T14:29:51;13.65;;;5.53;;
42092;SDS011;28974;50.316;18.960;2023-05-18T14:41:52;20.67;;;5.25;;
42092;SDS011;28974;50.316;18.960;2023-05-18T14:53:52;10.60;;;3.00;;
42092;SDS011;28974;50.316;18.960;2023-05-18T15:05:53;10.35;;;2.40;;
42092;SDS011;28974;50.316;18.960;2023-05-18T15:17:53;9.27;;;3.22;;
42092;SDS011;28974;50.316;18.960;2023-05-18T15:29:53;9.38;;;3.92;;
42092;SDS011;28974;50.316;18.960;2023-05-18T15:41:54;14.00;;;4.30;;
42092;SDS011;28974;50.316;18.960;2023-05-18T15:53:55;11.82;;;4.35;;
42092;SDS011;28974;50.316;18.960;2023-05-18T16:05:55;14.10;;;4.55;;
42092;SDS011;28974;50.316;18.960;2023-05-18T16:17:56;17.73;;;5.90;;
42092;SDS011;28974;50.316;18.960;2023-05-18T16:29:56;12.88;;;5.50;;
42092;SDS011;28974;50.316;18.960;2023-05-18T16:41:56;13.70;;;5.22;;
42092;SDS011;28974;50.316;18.960;2023-05-18T16:53:57;12.35;;;4.68;;
42092;SDS011;28974;50.316;18.960;2023-05-18T17:05:57;13.02;;;4.97;;
42092;SDS011;28974;50.316;18.960;2023-05-18T17:17:58;9.43;;;3.95;;
42092;SDS011;28974;50.316;18.960;2023-05-18T17:29:58;14.40;;;5.35;;
42092;SDS011;28974;50.316;18.960;2023-05-18T17:41:59;10.95;;;5.25;;
42092;SDS011;28974;50.316;18.960;2023-05-18T17:54:00;9.82;;;5.28;;
42092;SDS011;28974;50.316;18.960;2023-05-18T18:06:01;14.20;;;5.65;;
42092;SDS011;28974;50.316;18.960;2023-05-18T18:18:01;15.75;;;6.28;;
42092;SDS011;28974;50.316;18.960;2023-05-18T18:30:02;14.45;;;6.05;;
42092;SDS011;28974;50.316;18.960;2023-05-18T18:42:03;20.00;;;6.60;;
42092;SDS011;28974;50.316;18.960;2023-05-18T18:54:04;18.77;;;7.47;;
42092;SDS011;28974;50.316;18.960;2023-05-18T19:06:05;12.88;;;6.30;;
42092;SDS011;28974;50.316;18.960;2023-05-18T19:18:05;18.85;;;7.20;;
42092;SDS011;28974;50.316;18.960;2023-05-18T19:30:06;20.05;;;8.05;;
42092;SDS011;28974;50.316;18.960;2023-05-18T19:42:07;20.47;;;8.43;;
42092;SDS011;28974;50.316;18.960;2023-05-18T19:54:08;24.98;;;10.18;;
42092;SDS011;28974;50.316;18.960;2023-05-18T20:06:08;29.15;;;11.23;;
42092;SDS011;28974;50.316;18.960;2023-05-18T20:18:09;34.97;;;11.43;;
42092;SDS011;28974;50.316;18.960;2023-05-18T20:30:09;20.35;;;9.93;;
42092;SDS011;28974;50.316;18.960;2023-05-18T20:42:09;24.83;;;10.38;;
42092;SDS011;28974;50.316;18.960;2023-05-18T20:54:11;20.30;;;10.25;;
42092;SDS011;28974;50.316;18.960;2023-05-18T21:06:12;23.17;;;9.45;;
42092;SDS011;28974;50.316;18.960;2023-05-18T21:18:13;24.77;;;10.63;;
42092;SDS011;28974;50.316;18.960;2023-05-18T21:30:13;20.15;;;9.05;;
42092;SDS011;28974;50.316;18.960;2023-05-18T21:42:14;28.75;;;11.07;;
42092;SDS011;28974;50.316;18.960;2023-05-18T21:54:15;20.23;;;9.02;;
42092;SDS011;28974;50.316;18.960;2023-05-18T22:06:15;16.13;;;7.07;;
42092;SDS011;28974;50.316;18.960;2023-05-18T22:18:16;17.15;;;6.13;;
42092;SDS011;28974;50.316;18.960;2023-05-18T22:30:18;11.20;;;5.10;;
42092;SDS011;28974;50.316;18.960;2023-05-18T22:42:26;9.70;;;4.25;;
42092;SDS011;28974;50.316;18.960;2023-05-18T22:54:27;8.75;;;4.60;;
42092;SDS011;28974;50.316;18.960;2023-05-18T23:06:27;11.98;;;5.78;;
42092;SDS011;28974;50.316;18.960;2023-05-18T23:18:30;8.00;;;4.53;;
42092;SDS011;28974;50.316;18.960;2023-05-18T23:30:31;12.38;;;5.68;;
42092;SDS011;28974;50.316;18.960;2023-05-18T23:42:31;12.63;;;6.15;;
42092;SDS011;28974;50.316;18.960;2023-05-18T23:54:32;12.57;;;5.72;;
